Time;durP1;ratioP1;P1;durP2;ratioP2;P2;SDS_P1;SDS_P2;PMS_P1;PMS_P2;Temp;Humidity;BMP_temperature;BMP_pressure;BME280_temperature;BME280_humidity;BME280_pressure;Samples;Min_cycle;Max_cycle;Signal;HPM_P1;HPM_P2
2021/04/24 00:00:12;;;;;;;11.40;7.57;;;5.90;99.90;;;;;;4991576;28;20244;-51
2021/04/24 00:02:41;;;;;;;11.77;6.83;;;5.90;99.90;;;;;;4988796;28;20229;-51
2021/04/24 00:05:13;;;;;;;13.50;7.20;;;5.90;99.90;;;;;;4991043;28;20325;-50
2021/04/24 00:07:41;;;;;;;10.57;6.97;;;5.80;99.90;;;;;;4986861;28;20241;-52
2021/04/24 00:10:11;;;;;;;11.23;6.80;;;5.80;99.90;;;;;;5002254;28;20713;-52
2021/04/24 00:12:38;;;;;;;10.90;6.97;;;5.80;99.90;;;;;;4992270;28;20324;-52
2021/04/24 00:15:08;;;;;;;14.30;7.40;;;5.80;99.90;;;;;;4992282;28;20287;-52
2021/04/24 00:17:36;;;;;;;13.10;6.87;;;5.80;99.90;;;;;;4992181;28;20229;-51
2021/04/24 00:20:06;;;;;;;14.57;7.80;;;5.80;99.90;;;;;;4991661;28;20369;-53
2021/04/24 00:22:33;;;;;;;13.00;7.23;;;5.80;99.90;;;;;;4991849;28;20701;-50
2021/04/24 00:25:00;;;;;;;11.63;7.10;;;5.80;99.90;;;;;;4988639;28;20710;-51
2021/04/24 00:27:29;;;;;;;9.23;6.80;;;5.70;99.90;;;;;;4972187;28;20745;-52
2021/04/24 00:29:56;;;;;;;13.20;7.93;;;5.60;99.90;;;;;;4972104;28;20239;-52
2021/04/24 00:32:23;;;;;;;13.27;7.23;;;5.60;99.90;;;;;;4971913;28;20753;-51
2021/04/24 00:34:51;;;;;;;16.83;8.60;;;5.60;99.90;;;;;;4974455;28;20325;-51
2021/04/24 00:37:18;;;;;;;10.80;7.70;;;5.60;99.90;;;;;;4992330;28;20245;-51
2021/04/24 00:39:46;;;;;;;13.47;7.90;;;5.60;99.90;;;;;;4991713;28;20241;-50
2021/04/24 00:42:13;;;;;;;11.63;7.23;;;5.50;99.90;;;;;;4991397;28;20242;-51
2021/04/24 00:44:47;;;;;;;12.57;7.67;;;5.50;99.90;;;;;;4979245;28;20242;-51
2021/04/24 00:47:14;;;;;;;13.07;7.90;;;5.50;99.90;;;;;;4971570;28;20252;-51
2021/04/24 00:49:42;;;;;;;12.30;7.77;;;5.50;99.90;;;;;;4971925;28;20685;-51
2021/04/24 00:52:09;;;;;;;12.77;7.60;;;5.50;99.90;;;;;;4973937;28;20243;-51
2021/04/24 00:54:37;;;;;;;12.90;7.23;;;5.50;99.90;;;;;;4972547;28;20647;-52
2021/04/24 00:57:06;;;;;;;13.10;7.67;;;5.50;99.90;;;;;;4971789;28;20696;-50
2021/04/24 00:59:36;;;;;;;12.33;7.87;;;5.50;99.90;;;;;;4971228;28;20325;-51
2021/04/24 01:02:06;;;;;;;14.50;8.20;;;5.50;99.90;;;;;;4964617;28;20295;-52
2021/04/24 01:04:34;;;;;;;12.00;7.50;;;5.50;99.90;;;;;;4959259;28;20238;-50
2021/04/24 01:07:02;;;;;;;12.83;8.07;;;5.60;99.90;;;;;;4958843;28;20294;-52
2021/04/24 01:09:29;;;;;;;11.50;7.73;;;5.60;99.90;;;;;;4990812;28;20248;-50
2021/04/24 01:11:56;;;;;;;14.60;7.97;;;5.60;99.90;;;;;;4991870;28;20241;-50
2021/04/24 01:14:24;;;;;;;13.77;7.63;;;5.60;99.90;;;;;;4991200;28;20237;-50
2021/04/24 01:16:51;;;;;;;12.30;7.67;;;5.60;99.90;;;;;;4990689;28;20319;-50
2021/04/24 01:19:22;;;;;;;16.10;7.70;;;5.50;99.90;;;;;;4980672;28;20238;-50
2021/04/24 01:21:52;;;;;;;11.60;7.50;;;5.50;99.90;;;;;;4971260;28;20776;-51
2021/04/24 01:24:21;;;;;;;13.50;7.67;;;5.60;99.90;;;;;;4974517;28;20245;-50
2021/04/24 01:26:49;;;;;;;10.83;7.30;;;5.50;99.90;;;;;;4971088;28;20231;-51
2021/04/24 01:29:16;;;;;;;11.53;6.90;;;5.50;99.90;;;;;;4981588;28;20245;-51
2021/04/24 01:31:43;;;;;;;11.57;7.30;;;5.50;99.90;;;;;;4976980;28;20234;-50
2021/04/24 01:34:11;;;;;;;17.13;8.07;;;5.50;99.90;;;;;;4971629;28;20297;-51
2021/04/24 01:36:38;;;;;;;10.87;7.30;;;5.50;99.90;;;;;;4971032;28;20796;-50
2021/04/24 01:39:06;;;;;;;13.53;7.10;;;5.50;99.90;;;;;;4962819;28;20254;-51
2021/04/24 01:41:34;;;;;;;12.60;7.50;;;5.40;99.90;;;;;;4951267;28;20962;-52
2021/04/24 01:44:03;;;;;;;12.77;6.53;;;5.50;99.90;;;;;;4952029;28;20247;-51
2021/04/24 01:46:30;;;;;;;11.63;6.73;;;5.40;99.90;;;;;;4951615;28;20315;-51
2021/04/24 01:48:57;;;;;;;10.47;6.43;;;5.50;99.90;;;;;;4970758;28;20301;-50
2021/04/24 01:51:25;;;;;;;13.30;7.10;;;5.40;99.90;;;;;;4970496;28;20313;-53
2021/04/24 01:53:54;;;;;;;8.83;5.37;;;5.40;99.90;;;;;;4970759;28;20235;-50
2021/04/24 01:56:43;;;;;;;10.67;6.80;;;5.40;99.90;;;;;;4967373;28;20330;-51
2021/04/24 01:59:11;;;;;;;13.03;6.33;;;5.40;99.90;;;;;;4970986;28;20710;-51
2021/04/24 02:01:38;;;;;;;11.33;6.30;;;5.40;99.90;;;;;;4973123;28;20699;-52
2021/04/24 02:04:06;;;;;;;9.93;6.23;;;5.40;99.90;;;;;;4974427;28;20274;-50
2021/04/24 02:06:34;;;;;;;9.37;6.70;;;5.40;99.90;;;;;;4997895;28;20236;-51
2021/04/24 02:09:02;;;;;;;9.80;6.37;;;5.50;99.90;;;;;;4989856;28;20245;-50
2021/04/24 02:11:29;;;;;;;9.50;5.97;;;5.50;99.90;;;;;;4984961;28;20237;-50
2021/04/24 02:13:57;;;;;;;10.60;5.67;;;5.50;99.90;;;;;;4970607;28;20234;-50
2021/04/24 02:16:25;;;;;;;11.47;6.57;;;5.50;99.90;;;;;;4970237;28;20842;-50
2021/04/24 02:18:52;;;;;;;11.63;5.93;;;5.50;99.90;;;;;;4971449;28;20242;-50
2021/04/24 02:21:19;;;;;;;9.07;5.40;;;5.60;99.90;;;;;;4971270;28;20242;-51
2021/04/24 02:23:47;;;;;;;9.70;6.10;;;5.60;99.90;;;;;;4970269;28;20262;-52
2021/04/24 02:26:14;;;;;;;11.20;5.97;;;5.60;99.90;;;;;;4970269;28;20313;-51
2021/04/24 02:28:42;;;;;;;9.37;5.53;;;5.50;99.90;;;;;;4970468;28;20242;-50
2021/04/24 02:31:10;;;;;;;11.13;5.80;;;5.50;99.90;;;;;;4969562;28;20313;-50
2021/04/24 02:33:37;;;;;;;10.67;6.00;;;5.60;99.90;;;;;;4989637;28;20542;-52
2021/04/24 02:36:06;;;;;;;8.17;5.30;;;5.50;99.90;;;;;;4989492;28;20246;-50
2021/04/24 02:38:35;;;;;;;10.73;5.33;;;5.50;99.90;;;;;;4988983;28;20702;-51
2021/04/24 02:41:05;;;;;;;11.87;4.90;;;5.50;99.90;;;;;;4983937;28;20250;-52
2021/04/24 02:43:33;;;;;;;11.37;5.43;;;5.50;99.90;;;;;;4981378;28;20670;-51
2021/04/24 02:46:00;;;;;;;10.90;5.37;;;5.50;99.90;;;;;;4985110;28;20241;-50
2021/04/24 02:48:28;;;;;;;11.13;5.47;;;5.40;99.90;;;;;;4969895;28;20678;-51
2021/04/24 02:50:56;;;;;;;9.30;5.23;;;5.40;99.90;;;;;;4971788;28;20309;-51
2021/04/24 02:53:23;;;;;;;9.23;5.23;;;5.30;99.90;;;;;;4970484;28;20319;-50
2021/04/24 02:55:50;;;;;;;9.43;5.47;;;5.30;99.90;;;;;;4970538;28;20750;-51
2021/04/24 02:58:18;;;;;;;9.37;5.03;;;5.30;99.90;;;;;;4976013;28;20499;-52
2021/04/24 03:00:46;;;;;;;8.87;4.70;;;5.30;99.90;;;;;;4978689;28;20583;-52
2021/04/24 03:03:15;;;;;;;10.90;5.57;;;5.40;99.90;;;;;;4960399;28;20241;-51
2021/04/24 03:05:44;;;;;;;12.23;5.20;;;5.30;99.90;;;;;;4950627;28;20239;-50
2021/04/24 03:08:12;;;;;;;11.30;5.20;;;5.30;99.90;;;;;;4950311;28;20395;-51
2021/04/24 03:10:41;;;;;;;9.73;5.37;;;5.40;99.90;;;;;;4949788;28;20762;-51
2021/04/24 03:13:11;;;;;;;10.17;5.23;;;5.50;99.90;;;;;;4950623;28;20247;-51
2021/04/24 03:15:38;;;;;;;10.03;5.20;;;5.50;99.90;;;;;;4950319;28;20243;-51
2021/04/24 03:18:07;;;;;;;8.43;4.50;;;5.30;99.90;;;;;;4950262;28;20250;-50
2021/04/24 03:20:34;;;;;;;10.20;4.87;;;5.30;99.90;;;;;;4951922;28;20323;-51
2021/04/24 03:23:04;;;;;;;10.43;5.40;;;5.30;99.90;;;;;;4969866;28;20246;-50
2021/04/24 03:25:31;;;;;;;10.20;5.17;;;5.30;99.90;;;;;;4969387;28;20261;-50
2021/04/24 03:27:59;;;;;;;8.20;4.70;;;5.30;99.90;;;;;;4969566;28;20330;-50
2021/04/24 03:30:27;;;;;;;7.10;4.90;;;5.30;99.90;;;;;;4970700;28;20280;-51
2021/04/24 03:32:57;;;;;;;7.83;4.23;;;5.30;99.90;;;;;;4987841;28;20701;-50
2021/04/24 03:35:25;;;;;;;7.43;5.20;;;5.30;99.90;;;;;;4989362;28;20229;-51
2021/04/24 03:37:52;;;;;;;10.63;4.90;;;5.30;99.90;;;;;;4988711;28;20237;-51
2021/04/24 03:40:20;;;;;;;10.43;5.70;;;5.30;99.90;;;;;;4987891;28;20709;-51
2021/04/24 03:42:48;;;;;;;8.77;5.03;;;5.40;99.90;;;;;;4969234;28;20242;-51
2021/04/24 03:45:19;;;;;;;10.53;5.50;;;5.40;99.90;;;;;;4969502;28;20242;-51
2021/04/24 03:47:50;;;;;;;8.43;4.97;;;5.30;99.90;;;;;;4969074;28;20253;-51
2021/04/24 03:50:18;;;;;;;13.30;5.60;;;5.30;99.90;;;;;;4968615;28;20238;-50
2021/04/24 03:52:46;;;;;;;9.27;5.07;;;5.40;99.90;;;;;;4976796;28;20245;-51
2021/04/24 03:55:15;;;;;;;8.20;5.03;;;5.40;99.90;;;;;;5001297;28;20252;-50
2021/04/24 03:57:44;;;;;;;10.67;5.33;;;5.40;99.90;;;;;;4990877;28;20704;-50
2021/04/24 04:00:15;;;;;;;9.87;4.80;;;5.40;99.90;;;;;;4992878;28;20233;-51
2021/04/24 04:02:49;;;;;;;8.30;5.13;;;5.30;99.90;;;;;;4992643;28;20234;-51
2021/04/24 04:05:19;;;;;;;9.93;5.20;;;5.30;99.90;;;;;;4986570;28;20754;-51
2021/04/24 04:07:47;;;;;;;11.73;5.13;;;5.20;99.90;;;;;;4988383;28;20240;-50
2021/04/24 04:10:17;;;;;;;11.40;5.80;;;5.30;99.90;;;;;;5002226;28;20241;-53
2021/04/24 04:12:53;;;;;;;9.20;5.37;;;5.40;99.90;;;;;;4968745;28;20230;-52
2021/04/24 04:15:22;;;;;;;9.93;4.90;;;5.40;99.90;;;;;;4969637;28;20581;-50
2021/04/24 04:17:55;;;;;;;9.20;4.90;;;5.40;99.90;;;;;;4969038;28;20293;-50
2021/04/24 04:20:23;;;;;;;8.83;5.00;;;5.40;99.90;;;;;;4967552;28;20486;-51
2021/04/24 04:22:51;;;;;;;8.90;5.47;;;5.40;99.90;;;;;;4984194;28;20325;-50
2021/04/24 04:25:18;;;;;;;13.03;5.97;;;5.40;99.90;;;;;;4969367;28;20301;-53
2021/04/24 04:27:45;;;;;;;8.63;5.20;;;5.50;99.90;;;;;;4968493;28;20262;-51
2021/04/24 04:30:16;;;;;;;9.50;5.87;;;5.60;99.90;;;;;;4967568;28;20289;-52
2021/04/24 04:32:44;;;;;;;8.87;4.90;;;5.70;99.90;;;;;;4987007;28;20249;-51
2021/04/24 04:35:14;;;;;;;10.03;5.47;;;5.60;99.90;;;;;;4988202;28;20725;-50
2021/04/24 04:37:41;;;;;;;14.00;5.87;;;5.70;99.90;;;;;;4988166;28;20318;-52
2021/04/24 04:40:11;;;;;;;11.27;5.40;;;5.70;99.90;;;;;;4976758;28;20239;-52
2021/04/24 04:42:39;;;;;;;9.57;5.53;;;5.80;99.90;;;;;;4968287;28;20246;-52
2021/04/24 04:45:09;;;;;;;10.57;5.30;;;5.80;99.90;;;;;;4971263;28;20317;-51
2021/04/24 04:47:37;;;;;;;10.13;5.20;;;5.80;99.90;;;;;;4973979;28;20230;-51
2021/04/24 04:50:09;;;;;;;9.20;5.17;;;5.90;99.90;;;;;;4972186;28;20590;-51
2021/04/24 04:52:37;;;;;;;10.67;5.10;;;5.90;99.90;;;;;;4972663;28;20238;-51
2021/04/24 04:55:06;;;;;;;10.37;5.57;;;6.00;99.90;;;;;;4989972;28;20229;-51
2021/04/24 04:57:34;;;;;;;9.60;5.57;;;6.10;99.90;;;;;;4985757;28;20767;-51
2021/04/24 05:00:01;;;;;;;9.73;4.80;;;6.00;99.90;;;;;;4981119;28;20241;-51
2021/04/24 05:02:29;;;;;;;7.90;5.13;;;6.00;99.90;;;;;;4990577;28;20578;-51
2021/04/24 05:04:57;;;;;;;11.07;5.03;;;6.00;99.90;;;;;;4991696;28;20324;-52
2021/04/24 05:07:24;;;;;;;9.47;4.87;;;5.90;99.90;;;;;;4991062;28;20245;-53
2021/04/24 05:10:06;;;;;;;10.53;5.23;;;6.00;99.90;;;;;;4971336;28;20242;-51
2021/04/24 05:12:34;;;;;;;10.00;4.80;;;6.10;99.90;;;;;;4971645;28;20270;-51
2021/04/24 05:15:01;;;;;;;9.63;5.20;;;6.30;99.90;;;;;;4970759;28;20249;-51
2021/04/24 05:17:29;;;;;;;11.20;5.47;;;6.40;99.90;;;;;;4971451;28;20246;-52
2021/04/24 05:19:57;;;;;;;11.43;5.43;;;6.60;99.90;;;;;;4971692;28;20293;-51
2021/04/24 05:22:24;;;;;;;10.33;5.37;;;6.70;99.90;;;;;;4971046;28;20657;-50
2021/04/24 05:24:52;;;;;;;11.73;5.23;;;6.70;99.90;;;;;;4971940;28;20269;-52
2021/04/24 05:27:19;;;;;;;7.13;5.00;;;6.70;99.90;;;;;;4971857;28;20236;-51
2021/04/24 05:29:46;;;;;;;9.97;5.30;;;6.70;99.90;;;;;;4988733;28;20284;-51
2021/04/24 05:32:14;;;;;;;11.77;4.90;;;6.80;99.90;;;;;;4973087;28;20297;-51
2021/04/24 05:34:41;;;;;;;10.90;5.27;;;6.90;99.90;;;;;;4971408;28;20249;-50
2021/04/24 05:37:10;;;;;;;12.50;5.40;;;6.90;99.90;;;;;;4961756;28;20247;-51
2021/04/24 05:39:37;;;;;;;12.23;5.20;;;6.90;99.90;;;;;;4951676;28;20762;-51
2021/04/24 05:42:05;;;;;;;12.20;4.80;;;6.90;99.90;;;;;;4951565;28;20739;-52
2021/04/24 05:44:33;;;;;;;13.67;5.40;;;6.90;99.90;;;;;;4951514;28;20477;-52
2021/04/24 05:47:00;;;;;;;11.23;4.57;;;7.00;99.90;;;;;;4959010;28;20294;-50
2021/04/24 05:49:30;;;;;;;16.97;5.23;;;7.00;99.90;;;;;;4970678;28;20899;-50
2021/04/24 05:51:57;;;;;;;8.93;4.70;;;7.00;99.90;;;;;;4966833;28;20263;-51
2021/04/24 05:54:25;;;;;;;13.97;5.73;;;7.10;99.90;;;;;;4960145;28;20707;-50
2021/04/24 05:56:52;;;;;;;10.27;4.60;;;7.30;99.90;;;;;;4975233;28;20287;-50
2021/04/24 05:59:20;;;;;;;13.80;5.20;;;7.40;99.90;;;;;;4983395;28;20249;-51
2021/04/24 06:01:47;;;;;;;11.97;5.47;;;7.50;99.90;;;;;;4970253;28;20248;-50
2021/04/24 06:04:15;;;;;;;10.73;5.50;;;7.60;99.90;;;;;;4971125;28;20249;-51
2021/04/24 06:06:42;;;;;;;9.03;4.40;;;7.70;99.90;;;;;;4965302;28;20699;-51
2021/04/24 06:09:10;;;;;;;12.77;5.07;;;7.70;99.90;;;;;;4951423;28;20704;-51
2021/04/24 06:11:38;;;;;;;11.00;4.37;;;7.80;99.90;;;;;;4949165;28;20231;-52
2021/04/24 06:14:06;;;;;;;11.37;4.67;;;8.00;99.90;;;;;;4951690;28;20274;-51
2021/04/24 06:16:33;;;;;;;13.43;5.00;;;7.90;99.90;;;;;;4954565;28;20329;-52
2021/04/24 06:19:00;;;;;;;11.57;4.50;;;7.90;99.90;;;;;;4969008;28;20853;-51
2021/04/24 06:21:28;;;;;;;11.97;4.87;;;7.90;99.90;;;;;;4967353;28;20246;-54
2021/04/24 06:23:56;;;;;;;13.57;4.47;;;7.80;99.90;;;;;;4968067;28;20247;-50
2021/04/24 06:26:23;;;;;;;14.77;4.80;;;8.00;99.90;;;;;;4965928;28;20249;-51
2021/04/24 06:28:51;;;;;;;11.27;4.33;;;8.20;99.90;;;;;;4948999;28;20235;-51
2021/04/24 06:31:18;;;;;;;10.60;4.00;;;8.50;99.90;;;;;;4958007;28;20239;-53
2021/04/24 06:33:46;;;;;;;14.07;4.30;;;8.80;99.90;;;;;;4969913;28;20246;-54
2021/04/24 06:36:17;;;;;;;12.10;4.57;;;8.80;99.90;;;;;;4973135;28;20257;-52
2021/04/24 06:38:45;;;;;;;16.23;4.60;;;8.90;99.90;;;;;;4970509;28;20253;-52
2021/04/24 06:41:12;;;;;;;14.00;5.10;;;8.80;99.90;;;;;;4972065;28;20322;-54
2021/04/24 06:43:40;;;;;;;16.00;4.00;;;8.90;99.90;;;;;;4969838;28;20245;-52
2021/04/24 06:46:08;;;;;;;16.07;4.03;;;8.90;99.90;;;;;;4970000;28;20236;-52
2021/04/24 06:48:36;;;;;;;18.67;4.37;;;8.90;99.90;;;;;;4983766;28;20329;-53
2021/04/24 06:51:04;;;;;;;12.87;3.60;;;8.90;99.90;;;;;;4976940;28;20645;-52
2021/04/24 06:53:31;;;;;;;9.97;3.60;;;9.00;99.90;;;;;;4984542;28;20230;-52
2021/04/24 06:55:58;;;;;;;13.10;3.63;;;9.00;99.90;;;;;;4993026;28;20238;-52
2021/04/24 06:58:26;;;;;;;16.30;3.57;;;9.10;99.90;;;;;;4988736;28;20292;-51
2021/04/24 07:00:54;;;;;;;14.10;3.50;;;9.20;99.90;;;;;;4981530;28;20255;-52
2021/04/24 07:03:23;;;;;;;16.93;3.77;;;9.20;99.90;;;;;;4970020;28;20269;-51
2021/04/24 07:05:51;;;;;;;15.57;3.70;;;9.40;99.90;;;;;;4960722;28;20232;-52
2021/04/24 07:08:19;;;;;;;17.33;3.57;;;9.50;99.90;;;;;;4963842;28;20394;-55
2021/04/24 07:10:47;;;;;;;18.13;3.40;;;9.70;99.90;;;;;;4977849;28;20240;-51
2021/04/24 07:13:14;;;;;;;10.83;3.10;;;9.70;99.90;;;;;;4978017;28;20647;-53
2021/04/24 07:15:41;;;;;;;10.70;2.73;;;10.00;99.90;;;;;;4977722;28;20266;-52
2021/04/24 07:18:09;;;;;;;13.83;3.00;;;10.10;99.90;;;;;;4987209;28;20242;-52
2021/04/24 07:20:38;;;;;;;9.83;2.40;;;10.20;99.90;;;;;;4990325;28;20222;-52
2021/04/24 07:23:07;;;;;;;12.27;2.83;;;10.10;99.90;;;;;;4995400;28;20684;-51
2021/04/24 07:25:35;;;;;;;11.13;2.50;;;10.20;99.90;;;;;;4986612;28;20231;-54
2021/04/24 07:28:02;;;;;;;12.00;3.10;;;10.30;99.90;;;;;;4997465;28;20701;-54
2021/04/24 07:30:30;;;;;;;15.93;3.07;;;10.40;99.90;;;;;;4991106;28;20247;-52
2021/04/24 07:32:58;;;;;;;11.13;2.47;;;10.60;99.90;;;;;;4989412;28;20246;-52
2021/04/24 07:35:25;;;;;;;8.83;2.93;;;10.70;99.90;;;;;;4991554;28;20235;-53
2021/04/24 07:37:54;;;;;;;8.53;2.17;;;10.60;99.90;;;;;;4994491;28;20235;-54
2021/04/24 07:40:21;;;;;;;9.73;2.40;;;10.60;99.90;;;;;;4996434;28;20243;-53
2021/04/24 07:42:49;;;;;;;11.13;2.47;;;10.70;99.90;;;;;;4990639;28;20252;-53
2021/04/24 07:45:16;;;;;;;8.37;2.40;;;10.70;99.90;;;;;;4978337;28;20238;-53
2021/04/24 07:47:44;;;;;;;8.17;2.40;;;10.80;99.90;;;;;;4991088;28;20243;-56
2021/04/24 07:50:14;;;;;;;7.60;2.43;;;11.00;99.90;;;;;;4982674;28;20243;-52
2021/04/24 07:52:41;;;;;;;7.67;2.30;;;11.00;99.90;;;;;;4979893;28;20228;-53
2021/04/24 07:55:10;;;;;;;9.23;2.60;;;11.10;99.90;;;;;;4980948;28;20565;-51
2021/04/24 07:57:38;;;;;;;6.10;2.43;;;11.20;99.90;;;;;;4984468;28;20653;-55
2021/04/24 08:00:08;;;;;;;8.27;2.67;;;11.30;99.90;;;;;;4984790;28;20247;-53
2021/04/24 08:02:36;;;;;;;5.93;2.07;;;11.10;99.90;;;;;;4974703;28;20272;-52
2021/04/24 08:05:07;;;;;;;8.03;2.40;;;11.00;99.90;;;;;;4971682;28;20335;-52
2021/04/24 08:07:54;;;;;;;7.10;2.67;;;11.20;99.90;;;;;;4976464;28;20247;-53
2021/04/24 08:10:22;;;;;;;7.93;2.50;;;11.30;99.90;;;;;;4984276;28;20237;-51
2021/04/24 08:12:50;;;;;;;7.27;2.20;;;11.60;99.90;;;;;;4985506;28;20299;-52
2021/04/24 08:15:17;;;;;;;7.77;2.30;;;11.80;99.90;;;;;;4980560;28;20241;-51
2021/04/24 08:17:45;;;;;;;6.13;2.40;;;11.90;99.90;;;;;;4967205;28;20601;-53
2021/04/24 08:20:14;;;;;;;9.73;2.57;;;12.00;99.90;;;;;;4969700;28;20248;-56
2021/04/24 08:22:42;;;;;;;4.63;2.10;;;11.90;99.90;;;;;;4981529;28;20655;-53
2021/04/24 08:25:11;;;;;;;5.20;2.27;;;11.60;99.90;;;;;;4990929;28;20248;-52
2021/04/24 08:27:39;;;;;;;3.83;1.80;;;11.60;99.90;;;;;;4989461;28;20290;-54
2021/04/24 08:30:10;;;;;;;5.63;1.80;;;11.70;99.90;;;;;;4986434;28;20237;-51
2021/04/24 08:32:37;;;;;;;3.37;1.70;;;11.90;99.90;;;;;;4979177;28;20242;-53
2021/04/24 08:35:06;;;;;;;4.33;1.60;;;12.00;99.90;;;;;;4989572;28;20237;-52
2021/04/24 08:37:35;;;;;;;4.93;1.63;;;11.90;99.90;;;;;;4990974;28;20301;-51
2021/04/24 08:40:05;;;;;;;3.97;1.10;;;11.80;99.90;;;;;;4991504;28;20798;-52
2021/04/24 08:42:34;;;;;;;6.77;1.30;;;11.80;99.90;;;;;;4975340;28;20283;-52
2021/04/24 08:45:13;;;;;;;4.00;1.30;;;11.90;99.90;;;;;;4991669;28;20665;-53
2021/04/24 08:47:44;;;;;;;3.67;1.50;;;12.00;99.90;;;;;;4986611;28;20258;-52
2021/04/24 08:50:16;;;;;;;3.47;1.30;;;12.20;99.90;;;;;;5002619;28;20267;-52
2021/04/24 08:52:43;;;;;;;2.80;1.30;;;12.50;99.90;;;;;;4993325;28;20941;-52
2021/04/24 08:55:17;;;;;;;6.70;1.50;;;12.70;99.90;;;;;;4991599;28;20237;-53
2021/04/24 08:57:46;;;;;;;4.03;1.53;;;12.50;99.90;;;;;;4991138;28;20245;-52
2021/04/24 09:00:20;;;;;;;3.30;1.33;;;12.40;99.90;;;;;;4988577;28;20241;-53
2021/04/24 09:02:47;;;;;;;3.87;1.20;;;12.30;99.90;;;;;;4955630;28;20329;-51
2021/04/24 09:05:18;;;;;;;4.13;1.23;;;12.40;99.90;;;;;;4967234;28;20237;-52
2021/04/24 09:07:46;;;;;;;2.67;1.20;;;12.50;99.40;;;;;;4952227;28;20722;-54
2021/04/24 09:10:16;;;;;;;5.20;1.53;;;12.50;99.10;;;;;;4952031;28;20665;-54
2021/04/24 09:12:47;;;;;;;2.27;1.00;;;12.40;99.90;;;;;;4957901;28;20479;-51
2021/04/24 09:15:19;;;;;;;1.60;0.90;;;12.70;99.40;;;;;;4952771;28;20330;-52
2021/04/24 09:17:54;;;;;;;4.23;0.90;;;12.50;97.30;;;;;;4955173;28;20250;-51
2021/04/24 09:20:23;;;;;;;5.57;1.47;;;12.50;97.70;;;;;;4955142;28;20238;-52
2021/04/24 09:23:06;;;;;;;3.43;1.10;;;12.60;97.80;;;;;;4957741;28;20536;-52
2021/04/24 09:25:38;;;;;;;5.00;1.20;;;12.80;99.40;;;;;;4964767;28;20296;-53
2021/04/24 09:28:10;;;;;;;1.80;0.97;;;12.80;97.40;;;;;;4966310;28;20638;-52
2021/04/24 09:30:40;;;;;;;2.60;1.00;;;13.00;96.20;;;;;;4964085;28;20240;-51
2021/04/24 09:33:13;;;;;;;1.40;1.00;;;13.10;96.30;;;;;;4985351;28;20253;-52
2021/04/24 09:35:45;;;;;;;4.13;1.00;;;13.20;94.30;;;;;;4989933;28;20245;-51
2021/04/24 09:38:22;;;;;;;1.63;1.00;;;13.20;95.70;;;;;;4990413;28;20315;-52
2021/04/24 09:41:10;;;;;;;3.63;0.97;;;13.30;95.30;;;;;;4980141;28;20329;-53
2021/04/24 09:44:00;;;;;;;3.43;1.30;;;13.40;95.40;;;;;;4984865;28;20264;-52
2021/04/24 09:46:33;;;;;;;3.00;1.10;;;13.50;94.30;;;;;;4983765;28;20241;-52
2021/04/24 09:49:10;;;;;;;2.27;0.90;;;13.60;95.30;;;;;;4988795;28;20787;-52
2021/04/24 09:51:51;;;;;;;2.40;1.13;;;13.80;94.30;;;;;;4989744;28;20229;-53
2021/04/24 09:54:21;;;;;;;3.53;0.90;;;13.90;93.50;;;;;;4992520;28;20639;-55
2021/04/24 09:57:00;;;;;;;2.53;1.10;;;13.90;93.10;;;;;;4991832;28;20261;-51
2021/04/24 09:59:28;;;;;;;2.30;1.27;;;14.10;92.60;;;;;;4999545;28;20245;-53
2021/04/24 10:02:02;;;;;;;1.70;1.20;;;14.40;91.60;;;;;;4991916;28;20238;-51
2021/04/24 10:04:30;;;;;;;2.57;1.10;;;14.20;92.40;;;;;;4974340;28;20239;-51
2021/04/24 10:06:58;;;;;;;2.50;1.07;;;14.20;93.60;;;;;;4976992;28;20234;-52
2021/04/24 10:09:28;;;;;;;2.40;1.20;;;14.10;92.10;;;;;;4980462;28;20245;-53
2021/04/24 10:12:11;;;;;;;1.80;1.00;;;14.30;91.50;;;;;;4978904;28;20943;-53
2021/04/24 10:14:41;;;;;;;1.90;1.07;;;14.20;90.50;;;;;;4986538;28;20229;-51
2021/04/24 10:17:12;;;;;;;3.13;1.27;;;14.30;91.20;;;;;;4983579;28;20714;-55
2021/04/24 10:19:41;;;;;;;2.20;1.00;;;14.30;91.50;;;;;;4993807;28;20238;-54
2021/04/24 10:22:12;;;;;;;3.95;1.48;;;14.80;91.70;;;;;;4986263;28;20451;-50
2021/04/24 10:24:40;;;;;;;3.53;1.20;;;14.30;89.70;;;;;;4992915;28;20244;-52
2021/04/24 10:27:11;;;;;;;2.70;1.10;;;14.90;91.90;;;;;;4998006;28;20722;-52
2021/04/24 10:29:39;;;;;;;2.80;1.23;;;15.00;91.00;;;;;;4992220;28;20263;-52
2021/04/24 10:32:06;;;;;;;2.00;1.10;;;15.40;90.20;;;;;;4989471;28;20248;-53
2021/04/24 10:34:35;;;;;;;2.57;1.23;;;15.70;90.70;;;;;;4994738;28;20269;-52
2021/04/24 10:37:02;;;;;;;1.83;1.03;;;15.60;90.50;;;;;;4992267;28;20245;-52
2021/04/24 10:39:32;;;;;;;2.60;1.20;;;15.10;87.60;;;;;;4996724;28;20308;-51
2021/04/24 10:42:21;;;;;;;3.03;1.43;;;15.10;90.20;;;;;;4983858;28;20230;-52
2021/04/24 10:44:53;;;;;;;3.23;1.30;;;14.90;90.00;;;;;;4986609;28;20578;-52
2021/04/24 10:47:45;;;;;;;2.80;1.30;;;14.90;90.20;;;;;;4996569;28;20288;-54
2021/04/24 10:50:16;;;;;;;2.20;1.40;;;14.80;89.30;;;;;;4987859;28;20337;-53
2021/04/24 10:52:45;;;;;;;3.00;1.20;;;14.70;88.00;;;;;;4998780;28;20263;-52
2021/04/24 10:55:25;;;;;;;2.47;1.30;;;15.00;90.50;;;;;;4990203;28;20234;-53
2021/04/24 10:57:55;;;;;;;2.30;1.20;;;15.00;89.90;;;;;;4981631;28;20238;-51
2021/04/24 11:00:26;;;;;;;3.03;1.30;;;14.90;88.70;;;;;;4987264;28;20690;-52
2021/04/24 11:02:55;;;;;;;2.63;1.10;;;15.20;87.90;;;;;;4984513;28;20243;-52
2021/04/24 11:05:30;;;;;;;3.53;1.20;;;15.70;84.60;;;;;;4989655;28;20241;-53
2021/04/24 11:08:26;;;;;;;2.37;1.20;;;16.10;85.90;;;;;;4987240;28;20257;-52
2021/04/24 11:11:02;;;;;;;2.30;1.40;;;16.10;83.60;;;;;;4985305;28;20226;-52
2021/04/24 11:13:33;;;;;;;3.43;1.30;;;15.90;84.10;;;;;;4985677;28;20323;-52
2021/04/24 11:16:03;;;;;;;1.63;1.13;;;15.90;84.20;;;;;;4982665;28;20246;-52
2021/04/24 11:18:33;;;;;;;2.63;1.37;;;16.10;88.00;;;;;;4976542;28;20653;-53
2021/04/24 11:21:05;;;;;;;4.00;1.40;;;15.50;85.10;;;;;;4983431;28;20725;-54
2021/04/24 11:23:49;;;;;;;2.70;1.40;;;15.40;86.40;;;;;;4988897;28;20236;-52
2021/04/24 11:26:25;;;;;;;2.80;1.50;;;15.40;87.10;;;;;;4986681;28;20254;-51
2021/04/24 11:29:08;;;;;;;2.53;1.43;;;15.60;84.70;;;;;;4985978;28;20261;-54
2021/04/24 11:32:07;;;;;;;2.60;1.37;;;15.40;86.30;;;;;;4983978;28;20582;-52
2021/04/24 11:34:56;;;;;;;2.73;1.50;;;15.40;87.10;;;;;;4995874;28;20239;-51
2021/04/24 11:37:35;;;;;;;1.83;1.23;;;15.70;83.90;;;;;;4987823;28;20237;-52
2021/04/24 11:40:25;;;;;;;2.97;1.20;;;16.30;84.20;;;;;;4981124;28;20374;-53
2021/04/24 11:43:12;;;;;;;2.10;1.40;;;16.10;82.40;;;;;;4986969;28;20775;-51
2021/04/24 11:46:04;;;;;;;2.50;1.30;;;15.80;85.90;;;;;;4993664;28;20308;-52
2021/04/24 11:49:05;;;;;;;2.27;1.40;;;15.70;84.40;;;;;;4988050;28;20287;-53
2021/04/24 11:51:39;;;;;;;1.83;1.20;;;15.40;85.50;;;;;;4995672;28;20283;-52
2021/04/24 11:54:10;;;;;;;2.50;1.40;;;15.30;82.80;;;;;;4993630;28;20728;-52
2021/04/24 11:56:39;;;;;;;2.10;1.30;;;15.20;83.80;;;;;;4974214;28;20308;-52
2021/04/24 11:59:07;;;;;;;1.30;1.20;;;15.10;83.70;;;;;;4987750;28;20246;-52
2021/04/24 12:01:35;;;;;;;2.03;1.67;;;15.50;88.70;;;;;;4977488;28;20254;-54
2021/04/24 12:04:03;;;;;;;3.47;1.33;;;15.30;81.20;;;;;;4976594;28;20776;-53
2021/04/24 12:06:42;;;;;;;2.37;1.40;;;15.00;83.20;;;;;;4980592;28;20265;-54
2021/04/24 12:09:15;;;;;;;1.77;1.30;;;14.80;85.40;;;;;;4992173;28;20725;-54
2021/04/24 12:11:56;;;;;;;3.57;1.40;;;14.40;87.30;;;;;;4991040;28;20237;-54
2021/04/24 12:14:24;;;;;;;3.10;1.43;;;14.10;86.40;;;;;;4973229;28;20246;-52
2021/04/24 12:16:52;;;;;;;1.77;1.20;;;14.10;90.00;;;;;;4975610;28;20255;-53
2021/04/24 12:19:33;;;;;;;3.13;1.57;;;13.80;87.30;;;;;;5004058;28;20246;-51
2021/04/24 12:22:23;;;;;;;2.73;1.50;;;13.70;88.00;;;;;;4981060;28;20808;-52
2021/04/24 12:25:05;;;;;;;2.23;1.50;;;13.80;90.00;;;;;;4983308;28;20562;-52
2021/04/24 12:27:37;;;;;;;3.37;1.50;;;14.00;89.70;;;;;;4980556;28;20291;-53
2021/04/24 12:30:16;;;;;;;4.07;1.50;;;13.90;91.50;;;;;;4976763;28;20257;-51
2021/04/24 12:32:46;;;;;;;2.90;1.60;;;14.10;89.80;;;;;;4974496;28;20653;-52
2021/04/24 12:35:23;;;;;;;3.77;1.50;;;14.00;89.10;;;;;;4981489;28;20601;-52
2021/04/24 12:38:01;;;;;;;1.77;1.37;;;14.00;90.90;;;;;;4988170;28;20585;-52
2021/04/24 12:40:31;;;;;;;4.20;1.53;;;13.80;89.50;;;;;;4984800;28;20269;-53
2021/04/24 12:43:05;;;;;;;4.53;1.40;;;13.50;90.30;;;;;;4979764;28;20238;-54
2021/04/24 12:45:33;;;;;;;3.27;1.50;;;13.20;91.10;;;;;;4998643;28;20260;-52
2021/04/24 12:48:00;;;;;;;3.33;1.30;;;13.40;91.40;;;;;;4985140;28;20581;-52
2021/04/24 12:50:32;;;;;;;2.43;1.23;;;13.90;92.40;;;;;;5003207;28;20320;-52
2021/04/24 12:53:02;;;;;;;2.47;1.20;;;14.10;90.50;;;;;;4988848;28;21589;-55
2021/04/24 12:55:34;;;;;;;2.57;1.47;;;14.00;91.50;;;;;;4960856;28;20242;-55
2021/04/24 12:58:04;;;;;;;2.53;1.30;;;14.00;91.10;;;;;;4960163;28;20246;-54
2021/04/24 13:00:39;;;;;;;3.43;1.40;;;13.80;91.70;;;;;;4964572;28;20652;-51
2021/04/24 13:03:29;;;;;;;2.23;1.30;;;13.60;92.00;;;;;;4961661;28;20349;-55